sensor_id;sensor_type;location;lat;lon;timestamp;P1;durP1;ratioP1;P2;durP2;ratioP2
609;SDS011;292;48.800;9.216;2024-03-02T00:00:49;19.63;;;9.98;;
609;SDS011;292;48.800;9.216;2024-03-02T00:03:17;17.50;;;9.32;;
609;SDS011;292;48.800;9.216;2024-03-02T00:05:48;20.27;;;9.52;;
609;SDS011;292;48.800;9.216;2024-03-02T00:08:17;17.40;;;9.55;;
609;SDS011;292;48.800;9.216;2024-03-02T00:10:49;20.48;;;9.60;;
609;SDS011;292;48.800;9.216;2024-03-02T00:13:16;21.73;;;11.52;;
609;SDS011;292;48.800;9.216;2024-03-02T00:15:48;21.33;;;10.93;;
609;SDS011;292;48.800;9.216;2024-03-02T00:18:18;23.20;;;11.85;;
609;SDS011;292;48.800;9.216;2024-03-02T00:20:46;21.80;;;10.70;;
609;SDS011;292;48.800;9.216;2024-03-02T00:23:14;20.58;;;11.07;;
609;SDS011;292;48.800;9.216;2024-03-02T00:25:44;26.95;;;12.10;;
609;SDS011;292;48.800;9.216;2024-03-02T00:28:14;25.90;;;11.32;;
609;SDS011;292;48.800;9.216;2024-03-02T00:30:52;28.10;;;13.07;;
609;SDS011;292;48.800;9.216;2024-03-02T00:33:22;24.70;;;11.43;;
609;SDS011;292;48.800;9.216;2024-03-02T00:35:49;21.58;;;10.93;;
609;SDS011;292;48.800;9.216;2024-03-02T00:38:16;24.27;;;10.95;;
609;SDS011;292;48.800;9.216;2024-03-02T00:40:45;17.80;;;9.98;;
609;SDS011;292;48.800;9.216;2024-03-02T00:43:22;19.88;;;10.63;;
609;SDS011;292;48.800;9.216;2024-03-02T00:46:03;23.13;;;10.75;;
609;SDS011;292;48.800;9.216;2024-03-02T00:48:30;27.58;;;11.90;;
609;SDS011;292;48.800;9.216;2024-03-02T00:51:00;22.05;;;10.82;;
609;SDS011;292;48.800;9.216;2024-03-02T00:53:28;18.92;;;10.38;;
609;SDS011;292;48.800;9.216;2024-03-02T00:55:59;29.05;;;12.60;;
609;SDS011;292;48.800;9.216;2024-03-02T00:58:27;24.75;;;10.90;;
609;SDS011;292;48.800;9.216;2024-03-02T01:00:54;20.80;;;10.57;;
609;SDS011;292;48.800;9.216;2024-03-02T01:03:21;27.25;;;12.23;;
609;SDS011;292;48.800;9.216;2024-03-02T01:05:48;26.95;;;10.60;;
609;SDS011;292;48.800;9.216;2024-03-02T01:08:15;17.75;;;10.00;;
609;SDS011;292;48.800;9.216;2024-03-02T01:10:43;20.58;;;10.65;;
609;SDS011;292;48.800;9.216;2024-03-02T01:13:12;20.15;;;10.45;;
609;SDS011;292;48.800;9.216;2024-03-02T01:15:41;28.48;;;11.23;;
609;SDS011;292;48.800;9.216;2024-03-02T01:18:08;24.92;;;11.63;;
609;SDS011;292;48.800;9.216;2024-03-02T01:20:35;24.40;;;10.88;;
609;SDS011;292;48.800;9.216;2024-03-02T01:23:05;22.55;;;10.48;;
609;SDS011;292;48.800;9.216;2024-03-02T01:25:32;22.90;;;11.00;;
609;SDS011;292;48.800;9.216;2024-03-02T01:27:59;25.55;;;11.20;;
609;SDS011;292;48.800;9.216;2024-03-02T01:30:27;22.58;;;10.68;;
609;SDS011;292;48.800;9.216;2024-03-02T01:32:54;26.65;;;10.70;;
609;SDS011;292;48.800;9.216;2024-03-02T01:35:21;26.15;;;11.35;;
609;SDS011;292;48.800;9.216;2024-03-02T01:37:48;18.70;;;9.77;;
609;SDS011;292;48.800;9.216;2024-03-02T01:40:15;19.83;;;10.30;;
609;SDS011;292;48.800;9.216;2024-03-02T01:42:42;21.98;;;9.90;;
609;SDS011;292;48.800;9.216;2024-03-02T01:45:10;22.48;;;10.27;;
609;SDS011;292;48.800;9.216;2024-03-02T01:47:38;24.20;;;11.40;;
609;SDS011;292;48.800;9.216;2024-03-02T01:50:05;20.45;;;10.60;;
609;SDS011;292;48.800;9.216;2024-03-02T01:52:36;20.73;;;10.75;;
609;SDS011;292;48.800;9.216;2024-03-02T01:55:03;18.90;;;10.23;;
609;SDS011;292;48.800;9.216;2024-03-02T01:57:32;20.15;;;10.23;;
609;SDS011;292;48.800;9.216;2024-03-02T02:00:00;26.38;;;12.13;;
609;SDS011;292;48.800;9.216;2024-03-02T02:02:28;23.80;;;11.60;;
609;SDS011;292;48.800;9.216;2024-03-02T02:04:56;32.03;;;13.23;;
609;SDS011;292;48.800;9.216;2024-03-02T02:07:23;25.70;;;12.70;;
609;SDS011;292;48.800;9.216;2024-03-02T02:09:51;23.63;;;11.60;;
609;SDS011;292;48.800;9.216;2024-03-02T02:12:18;23.15;;;11.27;;
609;SDS011;292;48.800;9.216;2024-03-02T02:14:49;27.55;;;12.23;;
609;SDS011;292;48.800;9.216;2024-03-02T02:17:16;21.98;;;11.25;;
609;SDS011;292;48.800;9.216;2024-03-02T02:19:43;22.08;;;11.63;;
609;SDS011;292;48.800;9.216;2024-03-02T02:22:11;22.17;;;11.57;;
609;SDS011;292;48.800;9.216;2024-03-02T02:24:39;25.40;;;12.95;;
609;SDS011;292;48.800;9.216;2024-03-02T02:27:06;26.27;;;12.45;;
609;SDS011;292;48.800;9.216;2024-03-02T02:29:33;24.05;;;11.93;;
609;SDS011;292;48.800;9.216;2024-03-02T02:32:01;24.50;;;12.02;;
609;SDS011;292;48.800;9.216;2024-03-02T02:34:28;29.75;;;13.40;;
609;SDS011;292;48.800;9.216;2024-03-02T02:36:55;28.00;;;12.52;;
609;SDS011;292;48.800;9.216;2024-03-02T02:39:24;32.90;;;13.60;;
609;SDS011;292;48.800;9.216;2024-03-02T02:41:50;30.48;;;13.00;;
609;SDS011;292;48.800;9.216;2024-03-02T02:44:17;28.90;;;13.00;;
609;SDS011;292;48.800;9.216;2024-03-02T02:46:44;26.90;;;13.00;;
609;SDS011;292;48.800;9.216;2024-03-02T02:49:11;26.80;;;12.70;;
609;SDS011;292;48.800;9.216;2024-03-02T02:51:38;30.50;;;13.70;;
609;SDS011;292;48.800;9.216;2024-03-02T02:54:06;31.77;;;14.70;;
609;SDS011;292;48.800;9.216;2024-03-02T02:56:34;31.90;;;14.50;;
609;SDS011;292;48.800;9.216;2024-03-02T02:59:01;29.98;;;14.05;;
609;SDS011;292;48.800;9.216;2024-03-02T03:01:28;36.03;;;14.70;;
609;SDS011;292;48.800;9.216;2024-03-02T03:03:55;37.38;;;16.20;;
609;SDS011;292;48.800;9.216;2024-03-02T03:06:22;33.72;;;15.20;;
609;SDS011;292;48.800;9.216;2024-03-02T03:08:49;27.40;;;13.23;;
609;SDS011;292;48.800;9.216;2024-03-02T03:11:16;27.65;;;13.32;;
609;SDS011;292;48.800;9.216;2024-03-02T03:13:44;26.55;;;12.70;;
609;SDS011;292;48.800;9.216;2024-03-02T03:16:11;28.35;;;13.70;;
609;SDS011;292;48.800;9.216;2024-03-02T03:18:38;36.72;;;14.75;;
609;SDS011;292;48.800;9.216;2024-03-02T03:21:05;25.95;;;13.50;;
609;SDS011;292;48.800;9.216;2024-03-02T03:23:32;31.88;;;14.57;;
609;SDS011;292;48.800;9.216;2024-03-02T03:25:59;27.40;;;12.48;;
609;SDS011;292;48.800;9.216;2024-03-02T03:28:26;31.45;;;12.75;;
609;SDS011;292;48.800;9.216;2024-03-02T03:30:55;25.65;;;12.35;;
609;SDS011;292;48.800;9.216;2024-03-02T03:33:22;31.65;;;13.02;;
609;SDS011;292;48.800;9.216;2024-03-02T03:35:49;45.08;;;13.18;;
609;SDS011;292;48.800;9.216;2024-03-02T03:38:16;25.73;;;12.25;;
609;SDS011;292;48.800;9.216;2024-03-02T03:40:43;23.55;;;11.80;;
609;SDS011;292;48.800;9.216;2024-03-02T03:43:10;26.15;;;10.75;;
609;SDS011;292;48.800;9.216;2024-03-02T03:45:37;23.23;;;10.90;;
609;SDS011;292;48.800;9.216;2024-03-02T03:48:05;20.48;;;9.93;;
609;SDS011;292;48.800;9.216;2024-03-02T03:50:32;24.55;;;11.10;;
609;SDS011;292;48.800;9.216;2024-03-02T03:52:59;25.17;;;11.57;;
609;SDS011;292;48.800;9.216;2024-03-02T03:55:26;26.52;;;13.65;;
609;SDS011;292;48.800;9.216;2024-03-02T03:57:53;27.02;;;11.95;;
609;SDS011;292;48.800;9.216;2024-03-02T04:00:20;25.67;;;11.57;;
609;SDS011;292;48.800;9.216;2024-03-02T04:02:47;27.50;;;12.60;;
609;SDS011;292;48.800;9.216;2024-03-02T04:05:15;23.77;;;11.30;;
609;SDS011;292;48.800;9.216;2024-03-02T04:07:42;25.50;;;11.90;;
609;SDS011;292;48.800;9.216;2024-03-02T04:10:10;26.35;;;11.05;;
609;SDS011;292;48.800;9.216;2024-03-02T04:12:37;24.58;;;10.70;;
609;SDS011;292;48.800;9.216;2024-03-02T04:15:05;28.48;;;11.52;;
609;SDS011;292;48.800;9.216;2024-03-02T04:17:33;27.70;;;12.40;;
609;SDS011;292;48.800;9.216;2024-03-02T04:20:01;28.30;;;12.07;;
609;SDS011;292;48.800;9.216;2024-03-02T04:22:32;28.65;;;12.68;;
609;SDS011;292;48.800;9.216;2024-03-02T04:25:00;23.70;;;11.35;;
609;SDS011;292;48.800;9.216;2024-03-02T04:27:26;23.98;;;11.40;;
609;SDS011;292;48.800;9.216;2024-03-02T04:29:53;28.05;;;12.15;;
609;SDS011;292;48.800;9.216;2024-03-02T04:32:20;27.33;;;12.57;;
609;SDS011;292;48.800;9.216;2024-03-02T04:34:47;22.38;;;10.95;;
609;SDS011;292;48.800;9.216;2024-03-02T04:37:14;22.67;;;11.18;;
609;SDS011;292;48.800;9.216;2024-03-02T04:39:42;21.77;;;10.25;;
609;SDS011;292;48.800;9.216;2024-03-02T04:42:09;24.65;;;11.32;;
609;SDS011;292;48.800;9.216;2024-03-02T04:44:36;23.20;;;11.70;;
609;SDS011;292;48.800;9.216;2024-03-02T04:47:03;26.98;;;11.77;;
609;SDS011;292;48.800;9.216;2024-03-02T04:49:31;24.17;;;11.57;;
609;SDS011;292;48.800;9.216;2024-03-02T04:51:58;28.27;;;10.90;;
609;SDS011;292;48.800;9.216;2024-03-02T04:54:25;23.52;;;11.65;;
609;SDS011;292;48.800;9.216;2024-03-02T04:56:53;22.13;;;11.20;;
609;SDS011;292;48.800;9.216;2024-03-02T04:59:20;28.80;;;11.15;;
609;SDS011;292;48.800;9.216;2024-03-02T05:01:47;22.98;;;10.13;;
609;SDS011;292;48.800;9.216;2024-03-02T05:04:14;28.73;;;11.30;;
609;SDS011;292;48.800;9.216;2024-03-02T05:06:41;25.10;;;11.18;;
609;SDS011;292;48.800;9.216;2024-03-02T05:09:08;23.25;;;11.32;;
609;SDS011;292;48.800;9.216;2024-03-02T05:11:35;26.38;;;11.85;;
609;SDS011;292;48.800;9.216;2024-03-02T05:14:25;21.33;;;10.43;;
609;SDS011;292;48.800;9.216;2024-03-02T05:16:51;25.98;;;12.15;;
609;SDS011;292;48.800;9.216;2024-03-02T05:19:18;23.70;;;11.63;;
609;SDS011;292;48.800;9.216;2024-03-02T05:21:45;25.95;;;11.50;;
609;SDS011;292;48.800;9.216;2024-03-02T05:24:13;24.85;;;11.32;;
609;SDS011;292;48.800;9.216;2024-03-02T05:26:40;24.60;;;12.15;;
609;SDS011;292;48.800;9.216;2024-03-02T05:29:07;26.50;;;11.35;;
609;SDS011;292;48.800;9.216;2024-03-02T05:31:36;25.50;;;12.00;;
609;SDS011;292;48.800;9.216;2024-03-02T05:34:05;21.85;;;10.25;;
609;SDS011;292;48.800;9.216;2024-03-02T05:36:32;21.45;;;11.50;;
609;SDS011;292;48.800;9.216;2024-03-02T05:38:59;27.05;;;11.80;;
609;SDS011;292;48.800;9.216;2024-03-02T05:41:26;25.13;;;12.00;;
609;SDS011;292;48.800;9.216;2024-03-02T05:43:53;32.20;;;12.60;;
609;SDS011;292;48.800;9.216;2024-03-02T05:46:20;31.38;;;12.35;;
609;SDS011;292;48.800;9.216;2024-03-02T05:48:49;29.05;;;11.93;;
609;SDS011;292;48.800;9.216;2024-03-02T05:51:16;25.15;;;12.30;;
609;SDS011;292;48.800;9.216;2024-03-02T05:53:42;26.80;;;12.23;;
609;SDS011;292;48.800;9.216;2024-03-02T05:56:09;26.13;;;11.70;;
609;SDS011;292;48.800;9.216;2024-03-02T05:58:37;29.92;;;12.27;;
609;SDS011;292;48.800;9.216;2024-03-02T06:01:14;23.35;;;10.75;;
609;SDS011;292;48.800;9.216;2024-03-02T06:03:43;24.60;;;11.80;;
609;SDS011;292;48.800;9.216;2024-03-02T06:06:11;28.55;;;13.10;;
609;SDS011;292;48.800;9.216;2024-03-02T06:08:38;22.65;;;11.55;;
609;SDS011;292;48.800;9.216;2024-03-02T06:11:05;26.83;;;11.52;;
609;SDS011;292;48.800;9.216;2024-03-02T06:13:32;27.80;;;11.10;;
609;SDS011;292;48.800;9.216;2024-03-02T06:15:59;26.75;;;12.13;;
609;SDS011;292;48.800;9.216;2024-03-02T06:18:26;24.60;;;11.80;;
609;SDS011;292;48.800;9.216;2024-03-02T06:20:53;28.50;;;11.50;;
609;SDS011;292;48.800;9.216;2024-03-02T06:23:22;26.15;;;12.70;;
609;SDS011;292;48.800;9.216;2024-03-02T06:25:49;24.88;;;12.35;;
609;SDS011;292;48.800;9.216;2024-03-02T06:28:16;24.45;;;11.75;;
609;SDS011;292;48.800;9.216;2024-03-02T06:30:43;30.45;;;12.38;;
609;SDS011;292;48.800;9.216;2024-03-02T06:33:11;24.92;;;11.00;;
609;SDS011;292;48.800;9.216;2024-03-02T06:35:38;24.23;;;10.82;;
609;SDS011;292;48.800;9.216;2024-03-02T06:38:06;29.92;;;12.85;;
609;SDS011;292;48.800;9.216;2024-03-02T06:40:34;30.02;;;13.30;;
609;SDS011;292;48.800;9.216;2024-03-02T06:43:02;28.75;;;12.98;;
609;SDS011;292;48.800;9.216;2024-03-02T06:45:30;30.65;;;12.38;;
609;SDS011;292;48.800;9.216;2024-03-02T06:47:58;44.35;;;13.75;;
609;SDS011;292;48.800;9.216;2024-03-02T06:50:25;29.08;;;11.63;;
609;SDS011;292;48.800;9.216;2024-03-02T06:52:53;24.63;;;12.13;;
609;SDS011;292;48.800;9.216;2024-03-02T06:55:21;30.13;;;12.52;;
609;SDS011;292;48.800;9.216;2024-03-02T06:57:51;37.80;;;13.02;;
609;SDS011;292;48.800;9.216;2024-03-02T07:00:18;31.50;;;13.55;;
609;SDS011;292;48.800;9.216;2024-03-02T07:02:46;34.70;;;13.90;;
609;SDS011;292;48.800;9.216;2024-03-02T07:05:13;34.00;;;13.52;;
609;SDS011;292;48.800;9.216;2024-03-02T07:07:40;29.17;;;13.38;;
609;SDS011;292;48.800;9.216;2024-03-02T07:10:07;33.13;;;12.70;;
609;SDS011;292;48.800;9.216;2024-03-02T07:12:34;28.25;;;13.50;;
609;SDS011;292;48.800;9.216;2024-03-02T07:15:03;32.88;;;13.70;;
609;SDS011;292;48.800;9.216;2024-03-02T07:17:50;32.88;;;13.48;;
609;SDS011;292;48.800;9.216;2024-03-02T07:20:17;32.90;;;13.55;;
609;SDS011;292;48.800;9.216;2024-03-02T07:22:44;34.58;;;14.32;;
609;SDS011;292;48.800;9.216;2024-03-02T07:25:11;31.55;;;13.98;;
609;SDS011;292;48.800;9.216;2024-03-02T07:27:38;35.75;;;14.43;;
609;SDS011;292;48.800;9.216;2024-03-02T07:30:07;28.02;;;12.95;;
609;SDS011;292;48.800;9.216;2024-03-02T07:32:36;26.40;;;13.00;;
609;SDS011;292;48.800;9.216;2024-03-02T07:35:04;25.75;;;12.68;;
609;SDS011;292;48.800;9.216;2024-03-02T07:37:32;32.47;;;12.50;;
609;SDS011;292;48.800;9.216;2024-03-02T07:39:59;24.27;;;11.18;;
609;SDS011;292;48.800;9.216;2024-03-02T07:42:27;30.38;;;13.98;;
609;SDS011;292;48.800;9.216;2024-03-02T07:44:55;28.60;;;12.38;;
609;SDS011;292;48.800;9.216;2024-03-02T07:47:23;33.63;;;12.55;;
609;SDS011;292;48.800;9.216;2024-03-02T07:49:50;22.58;;;11.23;;
609;SDS011;292;48.800;9.216;2024-03-02T07:52:17;23.83;;;11.50;;
609;SDS011;292;48.800;9.216;2024-03-02T07:54:44;20.60;;;10.73;;
609;SDS011;292;48.800;9.216;2024-03-02T07:57:11;20.10;;;9.77;;
609;SDS011;292;48.800;9.216;2024-03-02T07:59:38;22.88;;;10.57;;
609;SDS011;292;48.800;9.216;2024-03-02T08:02:05;22.77;;;10.20;;
609;SDS011;292;48.800;9.216;2024-03-02T08:04:34;23.08;;;11.60;;
609;SDS011;292;48.800;9.216;2024-03-02T08:07:02;20.40;;;10.18;;
609;SDS011;292;48.800;9.216;2024-03-02T08:09:29;22.45;;;10.73;;
609;SDS011;292;48.800;9.216;2024-03-02T08:11:56;33.30;;;10.63;;
609;SDS011;292;48.800;9.216;2024-03-02T08:14:24;24.98;;;10.23;;
609;SDS011;292;48.800;9.216;2024-03-02T08:16:50;24.98;;;10.65;;
609;SDS011;292;48.800;9.216;2024-03-02T08:19:17;33.65;;;10.30;;
609;SDS011;292;48.800;9.216;2024-03-02T08:21:46;23.58;;;10.23;;
609;SDS011;292;48.800;9.216;2024-03-02T08:24:13;20.13;;;10.35;;
609;SDS011;292;48.800;9.216;2024-03-02T08:26:40;20.88;;;9.38;;
609;SDS011;292;48.800;9.216;2024-03-02T08:29:07;23.83;;;10.43;;
609;SDS011;292;48.800;9.216;2024-03-02T08:31:34;21.23;;;9.68;;
609;SDS011;292;48.800;9.216;2024-03-02T08:34:01;22.88;;;9.98;;
609;SDS011;292;48.800;9.216;2024-03-02T08:36:28;17.35;;;8.93;;
609;SDS011;292;48.800;9.216;2024-03-02T08:38:57;19.85;;;9.15;;
609;SDS011;292;48.800;9.216;2024-03-02T08:41:24;16.48;;;8.82;;
609;SDS011;292;48.800;9.216;2024-03-02T08:43:50;15.65;;;7.93;;
609;SDS011;292;48.800;9.216;2024-03-02T08:46:17;16.33;;;8.50;;
609;SDS011;292;48.800;9.216;2024-03-02T08:48:44;16.55;;;9.07;;
609;SDS011;292;48.800;9.216;2024-03-02T08:51:11;16.70;;;7.97;;
609;SDS011;292;48.800;9.216;2024-03-02T08:53:38;13.17;;;7.00;;
609;SDS011;292;48.800;9.216;2024-03-02T08:56:08;18.73;;;8.67;;
609;SDS011;292;48.800;9.216;2024-03-02T08:58:37;15.90;;;7.73;;
609;SDS011;292;48.800;9.216;2024-03-02T09:01:05;19.40;;;7.03;;
609;SDS011;292;48.800;9.216;2024-03-02T09:03:33;14.30;;;8.27;;
609;SDS011;292;48.800;9.216;2024-03-02T09:06:00;19.17;;;7.33;;
609;SDS011;292;48.800;9.216;2024-03-02T09:08:27;16.27;;;7.87;;
609;SDS011;292;48.800;9.216;2024-03-02T09:10:54;12.13;;;7.00;;
609;SDS011;292;48.800;9.216;2024-03-02T09:13:23;14.50;;;5.60;;
609;SDS011;292;48.800;9.216;2024-03-02T09:15:50;10.17;;;6.50;;
609;SDS011;292;48.800;9.216;2024-03-02T09:18:17;11.50;;;6.00;;
609;SDS011;292;48.800;9.216;2024-03-02T09:20:44;10.73;;;5.60;;
609;SDS011;292;48.800;9.216;2024-03-02T09:23:12;11.30;;;5.97;;
609;SDS011;292;48.800;9.216;2024-03-02T09:25:41;10.87;;;5.43;;
609;SDS011;292;48.800;9.216;2024-03-02T09:28:08;9.63;;;5.47;;
609;SDS011;292;48.800;9.216;2024-03-02T09:30:36;10.50;;;6.00;;
609;SDS011;292;48.800;9.216;2024-03-02T09:33:03;9.37;;;5.53;;
609;SDS011;292;48.800;9.216;2024-03-02T09:35:31;9.83;;;5.80;;
609;SDS011;292;48.800;9.216;2024-03-02T09:37:58;10.40;;;5.87;;
609;SDS011;292;48.800;9.216;2024-03-02T09:40:25;10.93;;;5.77;;
609;SDS011;292;48.800;9.216;2024-03-02T09:42:52;7.50;;;4.93;;
609;SDS011;292;48.800;9.216;2024-03-02T09:45:22;7.40;;;5.03;;
609;SDS011;292;48.800;9.216;2024-03-02T09:47:51;16.40;;;6.63;;
609;SDS011;292;48.800;9.216;2024-03-02T09:50:19;10.20;;;5.60;;
609;SDS011;292;48.800;9.216;2024-03-02T09:52:47;10.13;;;5.53;;
609;SDS011;292;48.800;9.216;2024-03-02T09:55:15;7.70;;;5.20;;
609;SDS011;292;48.800;9.216;2024-03-02T09:57:43;10.37;;;6.10;;
609;SDS011;292;48.800;9.216;2024-03-02T10:00:12;7.63;;;4.60;;
609;SDS011;292;48.800;9.216;2024-03-02T10:02:40;10.73;;;5.13;;
609;SDS011;292;48.800;9.216;2024-03-02T10:05:09;7.67;;;4.80;;
609;SDS011;292;48.800;9.216;2024-03-02T10:07:36;8.13;;;4.37;;
609;SDS011;292;48.800;9.216;2024-03-02T10:10:12;6.83;;;4.77;;
609;SDS011;292;48.800;9.216;2024-03-02T10:12:40;13.50;;;5.20;;
609;SDS011;292;48.800;9.216;2024-03-02T10:15:07;8.63;;;4.83;;
609;SDS011;292;48.800;9.216;2024-03-02T10:17:34;11.60;;;5.50;;
609;SDS011;292;48.800;9.216;2024-03-02T10:22:54;7.33;;;4.00;;
609;SDS011;292;48.800;9.216;2024-03-02T10:25:30;9.00;;;4.60;;
609;SDS011;292;48.800;9.216;2024-03-02T10:27:58;8.60;;;4.53;;
609;SDS011;292;48.800;9.216;2024-03-02T10:30:25;10.50;;;5.30;;
609;SDS011;292;48.800;9.216;2024-03-02T10:32:53;6.90;;;4.53;;
609;SDS011;292;48.800;9.216;2024-03-02T10:35:21;6.73;;;4.13;;
609;SDS011;292;48.800;9.216;2024-03-02T10:37:52;6.77;;;3.97;;
609;SDS011;292;48.800;9.216;2024-03-02T10:40:21;8.83;;;5.07;;
609;SDS011;292;48.800;9.216;2024-03-02T10:42:49;7.53;;;4.50;;
609;SDS011;292;48.800;9.216;2024-03-02T10:45:17;5.60;;;3.67;;
609;SDS011;292;48.800;9.216;2024-03-02T10:47:47;6.53;;;4.50;;
609;SDS011;292;48.800;9.216;2024-03-02T10:50:14;8.80;;;4.33;;
609;SDS011;292;48.800;9.216;2024-03-02T10:52:41;8.00;;;4.37;;
609;SDS011;292;48.800;9.216;2024-03-02T10:55:10;7.70;;;4.23;;
609;SDS011;292;48.800;9.216;2024-03-02T10:57:41;6.43;;;3.70;;
609;SDS011;292;48.800;9.216;2024-03-02T11:00:11;6.47;;;3.70;;
609;SDS011;292;48.800;9.216;2024-03-02T11:02:45;8.43;;;4.30;;
609;SDS011;292;48.800;9.216;2024-03-02T11:05:23;4.97;;;3.43;;
609;SDS011;292;48.800;9.216;2024-03-02T11:07:56;7.17;;;3.70;;
609;SDS011;292;48.800;9.216;2024-03-02T11:10:30;7.43;;;3.67;;
609;SDS011;292;48.800;9.216;2024-03-02T11:13:04;7.10;;;3.67;;
609;SDS011;292;48.800;9.216;2024-03-02T11:15:35;6.80;;;3.20;;
609;SDS011;292;48.800;9.216;2024-03-02T11:18:03;6.30;;;3.80;;
609;SDS011;292;48.800;9.216;2024-03-02T11:20:33;8.60;;;3.13;;
609;SDS011;292;48.800;9.216;2024-03-02T11:23:04;5.43;;;3.20;;
609;SDS011;292;48.800;9.216;2024-03-02T11:25:33;5.13;;;3.33;;
609;SDS011;292;48.800;9.216;2024-03-02T11:28:01;5.37;;;2.97;;
609;SDS011;292;48.800;9.216;2024-03-02T11:33:15;6.30;;;2.37;;
609;SDS011;292;48.800;9.216;2024-03-02T11:35:52;6.17;;;2.77;;
609;SDS011;292;48.800;9.216;2024-03-02T11:38:19;3.77;;;2.30;;
609;SDS011;292;48.800;9.216;2024-03-02T11:40:48;3.20;;;2.20;;
609;SDS011;292;48.800;9.216;2024-03-02T11:43:16;4.27;;;2.00;;
609;SDS011;292;48.800;9.216;2024-03-02T11:45:43;5.60;;;2.30;;
609;SDS011;292;48.800;9.216;2024-03-02T11:48:11;2.73;;;1.97;;
609;SDS011;292;48.800;9.216;2024-03-02T11:50:40;3.03;;;1.57;;
609;SDS011;292;48.800;9.216;2024-03-02T11:53:09;2.30;;;1.30;;
609;SDS011;292;48.800;9.216;2024-03-02T11:55:37;1.27;;;1.10;;
609;SDS011;292;48.800;9.216;2024-03-02T11:58:07;1.03;;;0.73;;
609;SDS011;292;48.800;9.216;2024-03-02T12:00:35;0.93;;;0.87;;
609;SDS011;292;48.800;9.216;2024-03-02T12:03:03;1.20;;;1.03;;
609;SDS011;292;48.800;9.216;2024-03-02T12:05:33;0.70;;;0.60;;
609;SDS011;292;48.800;9.216;2024-03-02T12:08:01;0.97;;;0.77;;
609;SDS011;292;48.800;9.216;2024-03-02T12:10:31;1.20;;;0.83;;
609;SDS011;292;48.800;9.216;2024-03-02T12:13:00;1.83;;;0.90;;
609;SDS011;292;48.800;9.216;2024-03-02T12:15:31;1.20;;;1.10;;
609;SDS011;292;48.800;9.216;2024-03-02T12:17:59;1.23;;;0.80;;
609;SDS011;292;48.800;9.216;2024-03-02T12:20:28;2.40;;;1.30;;
609;SDS011;292;48.800;9.216;2024-03-02T12:22:56;3.70;;;1.63;;
609;SDS011;292;48.800;9.216;2024-03-02T12:25:25;1.33;;;1.00;;
609;SDS011;292;48.800;9.216;2024-03-02T12:27:53;2.70;;;0.97;;
609;SDS011;292;48.800;9.216;2024-03-02T12:30:21;25.47;;;16.50;;
609;SDS011;292;48.800;9.216;2024-03-02T12:32:50;7.13;;;3.53;;
609;SDS011;292;48.800;9.216;2024-03-02T12:35:18;5.10;;;1.60;;
609;SDS011;292;48.800;9.216;2024-03-02T12:37:46;2.00;;;1.30;;
609;SDS011;292;48.800;9.216;2024-03-02T12:40:14;2.67;;;1.23;;
609;SDS011;292;48.800;9.216;2024-03-02T12:42:43;1.50;;;1.00;;
609;SDS011;292;48.800;9.216;2024-03-02T12:45:11;1.00;;;0.67;;
609;SDS011;292;48.800;9.216;2024-03-02T12:47:39;1.63;;;0.90;;
609;SDS011;292;48.800;9.216;2024-03-02T12:50:09;1.50;;;1.00;;
609;SDS011;292;48.800;9.216;2024-03-02T12:52:36;1.60;;;0.90;;
609;SDS011;292;48.800;9.216;2024-03-02T12:55:04;1.40;;;0.70;;
609;SDS011;292;48.800;9.216;2024-03-02T12:57:32;1.70;;;0.90;;
609;SDS011;292;48.800;9.216;2024-03-02T13:00:00;1.10;;;1.00;;
609;SDS011;292;48.800;9.216;2024-03-02T13:02:33;2.83;;;0.87;;
609;SDS011;292;48.800;9.216;2024-03-02T13:05:01;1.07;;;1.00;;
609;SDS011;292;48.800;9.216;2024-03-02T13:07:30;1.47;;;0.87;;
609;SDS011;292;48.800;9.216;2024-03-02T13:09:59;1.20;;;0.60;;
609;SDS011;292;48.800;9.216;2024-03-02T13:12:26;1.53;;;1.07;;
609;SDS011;292;48.800;9.216;2024-03-02T13:14:53;1.50;;;0.70;;
609;SDS011;292;48.800;9.216;2024-03-02T13:17:21;2.40;;;1.00;;
609;SDS011;292;48.800;9.216;2024-03-02T13:19:51;1.40;;;0.90;;
609;SDS011;292;48.800;9.216;2024-03-02T13:22:19;1.00;;;0.87;;
609;SDS011;292;48.800;9.216;2024-03-02T13:24:48;3.43;;;1.10;;
609;SDS011;292;48.800;9.216;2024-03-02T13:27:15;1.13;;;0.93;;
609;SDS011;292;48.800;9.216;2024-03-02T13:29:44;1.10;;;0.90;;
609;SDS011;292;48.800;9.216;2024-03-02T13:32:12;1.77;;;1.00;;
609;SDS011;292;48.800;9.216;2024-03-02T13:34:39;0.87;;;0.87;;
609;SDS011;292;48.800;9.216;2024-03-02T13:37:06;1.87;;;1.10;;
609;SDS011;292;48.800;9.216;2024-03-02T13:39:33;3.60;;;1.70;;
609;SDS011;292;48.800;9.216;2024-03-02T13:42:06;6.63;;;1.20;;
609;SDS011;292;48.800;9.216;2024-03-02T13:44:34;1.60;;;1.07;;
609;SDS011;292;48.800;9.216;2024-03-02T13:47:01;1.13;;;0.87;;
609;SDS011;292;48.800;9.216;2024-03-02T13:49:29;1.77;;;1.10;;
609;SDS011;292;48.800;9.216;2024-03-02T13:52:01;5.23;;;1.07;;
609;SDS011;292;48.800;9.216;2024-03-02T13:54:36;1.40;;;0.90;;
609;SDS011;292;48.800;9.216;2024-03-02T13:57:04;1.33;;;1.00;;
609;SDS011;292;48.800;9.216;2024-03-02T13:59:33;1.20;;;1.10;;
609;SDS011;292;48.800;9.216;2024-03-02T14:02:01;1.97;;;1.33;;
609;SDS011;292;48.800;9.216;2024-03-02T14:04:29;3.70;;;1.20;;
609;SDS011;292;48.800;9.216;2024-03-02T14:06:56;1.63;;;0.80;;
609;SDS011;292;48.800;9.216;2024-03-02T14:09:23;2.20;;;1.13;;
609;SDS011;292;48.800;9.216;2024-03-02T14:11:51;1.27;;;1.10;;
609;SDS011;292;48.800;9.216;2024-03-02T14:14:19;1.30;;;1.10;;
609;SDS011;292;48.800;9.216;2024-03-02T14:16:46;2.93;;;1.17;;
609;SDS011;292;48.800;9.216;2024-03-02T14:19:13;1.00;;;0.97;;
609;SDS011;292;48.800;9.216;2024-03-02T14:21:41;4.03;;;0.90;;
609;SDS011;292;48.800;9.216;2024-03-02T14:24:08;1.33;;;0.90;;
609;SDS011;292;48.800;9.216;2024-03-02T14:26:35;1.10;;;1.00;;
609;SDS011;292;48.800;9.216;2024-03-02T14:29:03;2.20;;;0.80;;
609;SDS011;292;48.800;9.216;2024-03-02T14:31:31;1.83;;;1.07;;
609;SDS011;292;48.800;9.216;2024-03-02T14:33:58;1.33;;;1.00;;
609;SDS011;292;48.800;9.216;2024-03-02T14:36:26;1.77;;;0.97;;
609;SDS011;292;48.800;9.216;2024-03-02T14:38:53;2.07;;;1.00;;
609;SDS011;292;48.800;9.216;2024-03-02T14:41:21;1.60;;;1.10;;
609;SDS011;292;48.800;9.216;2024-03-02T14:43:49;1.27;;;1.07;;
609;SDS011;292;48.800;9.216;2024-03-02T14:46:16;2.50;;;1.40;;
609;SDS011;292;48.800;9.216;2024-03-02T14:48:45;1.40;;;0.87;;
609;SDS011;292;48.800;9.216;2024-03-02T14:51:13;3.73;;;1.20;;
609;SDS011;292;48.800;9.216;2024-03-02T14:53:40;1.00;;;0.93;;
609;SDS011;292;48.800;9.216;2024-03-02T14:56:12;5.70;;;1.50;;
609;SDS011;292;48.800;9.216;2024-03-02T14:58:39;4.67;;;2.37;;
609;SDS011;292;48.800;9.216;2024-03-02T15:01:06;16.27;;;6.13;;
609;SDS011;292;48.800;9.216;2024-03-02T15:03:34;7.47;;;2.77;;
609;SDS011;292;48.800;9.216;2024-03-02T15:06:03;1.43;;;1.10;;
609;SDS011;292;48.800;9.216;2024-03-02T15:08:32;2.33;;;0.90;;
609;SDS011;292;48.800;9.216;2024-03-02T15:10:59;2.03;;;1.20;;
609;SDS011;292;48.800;9.216;2024-03-02T15:13:27;1.53;;;0.80;;
609;SDS011;292;48.800;9.216;2024-03-02T15:15:54;1.53;;;1.13;;
609;SDS011;292;48.800;9.216;2024-03-02T15:18:21;1.00;;;0.93;;
609;SDS011;292;48.800;9.216;2024-03-02T15:20:49;4.37;;;2.10;;
609;SDS011;292;48.800;9.216;2024-03-02T15:23:17;11.93;;;5.07;;
609;SDS011;292;48.800;9.216;2024-03-02T15:25:44;6.67;;;3.33;;
609;SDS011;292;48.800;9.216;2024-03-02T15:28:11;4.47;;;1.93;;
609;SDS011;292;48.800;9.216;2024-03-02T15:30:39;6.60;;;2.67;;
609;SDS011;292;48.800;9.216;2024-03-02T15:33:06;19.57;;;7.57;;
609;SDS011;292;48.800;9.216;2024-03-02T15:35:33;37.90;;;11.60;;
609;SDS011;292;48.800;9.216;2024-03-02T15:38:00;18.23;;;7.47;;